createdAt,value
2018-04-15T00:01:30.323Z,14.80
2018-04-15T00:03:58.652Z,14.80
2018-04-15T00:06:26.191Z,14.80
2018-04-15T00:08:53.645Z,14.70
2018-04-15T00:11:21.111Z,14.70
2018-04-15T00:13:48.578Z,14.60
2018-04-15T00:16:16.056Z,14.60
2018-04-15T00:18:43.524Z,14.60
2018-04-15T00:21:10.987Z,14.70
2018-04-15T00:23:38.424Z,14.70
2018-04-15T00:26:05.912Z,14.60
2018-04-15T00:28:33.982Z,14.50
2018-04-15T00:31:01.471Z,14.50
2018-04-15T00:33:28.915Z,14.50
2018-04-15T00:35:56.388Z,14.50
2018-04-15T00:38:23.810Z,14.50
2018-04-15T00:40:51.284Z,14.40
2018-04-15T00:43:18.730Z,14.30
2018-04-15T00:45:46.194Z,14.30
2018-04-15T00:48:13.736Z,14.30
2018-04-15T00:50:41.231Z,14.30
2018-04-15T00:53:08.696Z,14.40
2018-04-15T00:55:36.175Z,14.50
2018-04-15T00:58:07.621Z,14.40
2018-04-15T01:00:35.844Z,14.30
2018-04-15T01:03:03.325Z,14.30
2018-04-15T01:05:30.793Z,14.30
2018-04-15T01:07:58.274Z,14.30
2018-04-15T01:10:25.715Z,14.40
2018-04-15T01:12:53.207Z,14.20
2018-04-15T01:15:20.663Z,14.10
2018-04-15T01:17:48.146Z,14.20
2018-04-15T01:20:15.609Z,14.30
2018-04-15T01:22:46.995Z,14.30
2018-04-15T01:25:14.531Z,14.40
2018-04-15T01:27:42.770Z,14.40
2018-04-15T01:30:10.234Z,14.40
2018-04-15T01:32:37.706Z,14.40
2018-04-15T01:35:05.159Z,14.40
2018-04-15T01:37:33.384Z,14.50
2018-04-15T01:40:01.072Z,14.50
2018-04-15T01:42:28.553Z,14.60
2018-04-15T01:44:56.006Z,14.50
2018-04-15T01:47:23.448Z,14.50
2018-04-15T01:49:51.695Z,14.60
2018-04-15T01:52:19.147Z,14.50
2018-04-15T01:54:46.671Z,14.50
2018-04-15T01:57:14.118Z,14.50
2018-04-15T01:59:41.570Z,14.60
2018-04-15T02:02:09.123Z,14.60
2018-04-15T02:04:37.373Z,14.70
2018-04-15T02:07:04.830Z,14.70
2018-04-15T02:09:32.323Z,14.80
2018-04-15T02:11:59.763Z,14.70
2018-04-15T02:14:27.231Z,14.80
2018-04-15T02:16:54.700Z,14.80
2018-04-15T02:19:22.151Z,14.70
2018-04-15T02:21:49.604Z,14.60
2018-04-15T02:24:17.076Z,14.50
2018-04-15T02:26:44.530Z,14.50
2018-04-15T02:29:12.000Z,14.60
2018-04-15T02:31:39.456Z,14.70
2018-04-15T02:34:06.927Z,14.70
2018-04-15T02:36:34.403Z,14.80
2018-04-15T02:39:02.644Z,14.80
2018-04-15T02:41:30.110Z,14.80
2018-04-15T02:43:57.566Z,14.70
2018-04-15T02:46:25.044Z,14.80
2018-04-15T02:48:53.297Z,14.80
2018-04-15T02:51:21.548Z,14.80
2018-04-15T02:53:49.782Z,14.80
2018-04-15T02:56:18.014Z,14.70
2018-04-15T02:58:45.474Z,14.70
2018-04-15T03:01:12.965Z,14.80
2018-04-15T03:03:40.517Z,14.70
2018-04-15T03:06:08.764Z,14.70
2018-04-15T03:08:36.203Z,14.70
2018-04-15T03:11:03.670Z,14.70
2018-04-15T03:13:31.131Z,14.80
2018-04-15T03:15:58.614Z,14.80
2018-04-15T03:18:26.049Z,14.90
2018-04-15T03:20:53.519Z,15.00
2018-04-15T03:23:20.966Z,14.90
2018-04-15T03:25:48.461Z,14.90
2018-04-15T03:28:15.886Z,15.00
2018-04-15T03:30:43.360Z,15.00
2018-04-15T03:33:10.815Z,15.00
2018-04-15T03:35:39.059Z,14.60
2018-04-15T03:38:06.514Z,14.60
2018-04-15T03:40:33.972Z,14.00
2018-04-15T03:43:02.280Z,13.60
2018-04-15T03:45:29.706Z,13.60
2018-04-15T03:47:57.165Z,13.50
2018-04-15T03:50:24.617Z,13.10
2018-04-15T03:52:52.131Z,13.20
2018-04-15T03:55:19.572Z,13.40
2018-04-15T03:57:47.098Z,13.30
2018-04-15T04:00:15.319Z,13.50
2018-04-15T04:02:42.794Z,13.50
2018-04-15T04:05:10.386Z,13.30
2018-04-15T04:07:37.847Z,13.30
2018-04-15T04:10:05.298Z,13.60
2018-04-15T04:12:33.583Z,13.90
2018-04-15T04:15:01.046Z,13.90
2018-04-15T04:17:40.466Z,14.10
2018-04-15T04:20:19.855Z,14.00
2018-04-15T04:22:59.312Z,14.10
2018-04-15T04:25:39.415Z,14.10
2018-04-15T04:28:06.854Z,14.10
2018-04-15T04:30:35.094Z,14.10
2018-04-15T04:33:02.884Z,14.10
2018-04-15T04:35:30.534Z,14.10
2018-04-15T04:37:57.983Z,14.00
2018-04-15T04:40:26.317Z,13.60
2018-04-15T04:55:48.834Z,13.60
2018-04-15T04:58:16.283Z,13.50
2018-04-15T05:00:43.742Z,13.40
2018-04-15T05:03:11.946Z,13.50
2018-04-15T05:05:39.424Z,13.50
2018-04-15T05:08:06.906Z,13.50
2018-04-15T05:10:34.398Z,13.70
2018-04-15T05:13:01.908Z,13.70
2018-04-15T05:15:37.833Z,13.80
2018-04-15T05:18:05.339Z,13.80
2018-04-15T05:20:32.803Z,13.60
2018-04-15T05:23:00.303Z,13.30
2018-04-15T05:25:28.540Z,13.60
2018-04-15T05:27:56.000Z,13.50
2018-04-15T05:30:23.451Z,13.70
2018-04-15T05:32:51.008Z,13.80
2018-04-15T05:35:18.468Z,13.70
2018-04-15T05:37:45.952Z,13.70
2018-04-15T05:40:13.395Z,13.50
2018-04-15T05:42:40.859Z,13.80
2018-04-15T05:45:08.296Z,13.90
2018-04-15T05:47:35.763Z,14.10
2018-04-15T05:50:03.206Z,14.00
2018-04-15T05:52:30.672Z,13.90
2018-04-15T05:54:58.115Z,13.90
2018-04-15T05:57:26.349Z,14.10
2018-04-15T05:59:53.814Z,14.10
2018-04-15T06:02:21.291Z,13.90
2018-04-15T06:04:48.745Z,14.00
2018-04-15T06:07:16.210Z,14.10
2018-04-15T06:09:44.458Z,14.30
2018-04-15T06:12:11.932Z,14.30
2018-04-15T06:14:39.473Z,14.40
2018-04-15T06:17:06.966Z,14.40
2018-04-15T06:19:34.441Z,14.50
2018-04-15T06:22:01.906Z,14.50
2018-04-15T06:24:30.035Z,14.50
2018-04-15T06:26:57.723Z,14.50
2018-04-15T06:29:25.957Z,14.60
2018-04-15T06:31:53.463Z,14.60
2018-04-15T06:34:21.724Z,14.50
2018-04-15T06:36:50.029Z,14.40
2018-04-15T06:39:17.426Z,14.40
2018-04-15T06:41:44.892Z,14.40
2018-04-15T06:44:12.423Z,14.40
2018-04-15T06:46:39.881Z,14.40
2018-04-15T06:49:07.387Z,14.60
2018-04-15T06:51:34.830Z,14.60
2018-04-15T06:54:03.073Z,14.90
2018-04-15T06:56:30.549Z,14.90
2018-04-15T06:58:58.028Z,15.00
2018-04-15T07:01:26.272Z,15.30
2018-04-15T07:03:53.741Z,15.20
2018-04-15T07:06:21.214Z,15.20
2018-04-15T07:08:49.263Z,15.20
2018-04-15T07:11:16.746Z,15.30
2018-04-15T07:13:44.960Z,15.60
2018-04-15T07:16:12.484Z,15.60
2018-04-15T07:18:40.725Z,15.70
2018-04-15T07:21:08.213Z,15.60
2018-04-15T07:23:36.442Z,15.80
2018-04-15T07:26:04.737Z,15.30
2018-04-15T07:28:32.258Z,15.30
2018-04-15T07:30:59.731Z,15.60
2018-04-15T07:33:27.192Z,15.80
2018-04-15T07:35:54.667Z,15.90
2018-04-15T07:38:22.131Z,15.90
2018-04-15T07:40:49.633Z,16.10
2018-04-15T07:43:17.112Z,16.10
2018-04-15T07:45:44.672Z,16.40
2018-04-15T07:48:12.126Z,16.70
2018-04-15T07:50:39.614Z,17.40
2018-04-15T07:53:07.075Z,17.50
2018-04-15T07:55:35.311Z,17.00
2018-04-15T07:58:02.881Z,16.90
2018-04-15T08:00:30.361Z,17.00
2018-04-15T08:02:57.906Z,16.90
2018-04-15T08:05:26.177Z,17.10
2018-04-15T08:07:53.736Z,17.10
2018-04-15T08:10:21.267Z,17.30
2018-04-15T08:12:48.852Z,17.40
2018-04-15T08:15:16.315Z,17.50
2018-04-15T08:17:43.834Z,17.70
2018-04-15T08:20:11.319Z,17.70
2018-04-15T08:22:38.772Z,17.80
2018-04-15T08:25:06.251Z,18.10
2018-04-15T08:27:33.722Z,18.30
2018-04-15T08:30:01.236Z,18.60
2018-04-15T08:32:29.493Z,19.50
2018-04-15T08:34:56.968Z,19.50
2018-04-15T08:37:24.469Z,20.10
2018-04-15T08:39:51.903Z,20.80
2018-04-15T08:42:19.383Z,21.30
2018-04-15T08:44:46.871Z,20.90
2018-04-15T08:47:14.347Z,20.20
2018-04-15T08:49:41.890Z,19.60
2018-04-15T08:52:09.364Z,19.30
2018-04-15T08:54:36.835Z,19.60
2018-04-15T08:57:04.276Z,19.70
2018-04-15T08:59:32.531Z,20.70
2018-04-15T09:01:59.983Z,20.70
2018-04-15T09:04:27.552Z,20.70
2018-04-15T09:06:54.967Z,21.80
2018-04-15T09:09:22.439Z,22.20
2018-04-15T09:11:49.945Z,22.10
2018-04-15T09:14:18.192Z,21.60
2018-04-15T09:16:45.697Z,21.60
2018-04-15T09:19:13.205Z,20.90
2018-04-15T09:21:41.431Z,21.20
2018-04-15T09:24:08.928Z,21.10
2018-04-15T09:26:36.860Z,20.80
2018-04-15T09:29:05.068Z,21.00
2018-04-15T09:31:32.536Z,21.00
2018-04-15T09:34:00.045Z,21.50
2018-04-15T09:36:27.555Z,23.20
2018-04-15T09:38:55.047Z,23.50
2018-04-15T09:41:23.269Z,22.40
2018-04-15T09:43:50.766Z,22.40
2018-04-15T09:46:18.218Z,22.20
2018-04-15T09:48:45.773Z,22.00
2018-04-15T09:51:13.256Z,21.70
2018-04-15T09:53:40.740Z,20.50
2018-04-15T09:56:08.201Z,20.40
2018-04-15T09:58:35.722Z,20.40
2018-04-15T10:01:07.071Z,20.40
2018-04-15T10:03:34.539Z,21.50
2018-04-15T10:06:02.015Z,22.20
2018-04-15T10:08:29.526Z,23.60
2018-04-15T10:10:57.022Z,24.00
2018-04-15T10:13:24.516Z,23.50
2018-04-15T10:15:52.026Z,24.60
2018-04-15T10:18:19.504Z,25.40
2018-04-15T10:20:46.965Z,26.20
2018-04-15T10:23:14.439Z,25.90
2018-04-15T10:25:41.927Z,25.40
2018-04-15T10:28:09.543Z,25.60
2018-04-15T10:30:37.034Z,24.90
2018-04-15T10:33:04.522Z,26.10
2018-04-15T10:35:33.285Z,25.80
2018-04-15T10:38:00.735Z,25.80
2018-04-15T10:40:28.200Z,25.50
2018-04-15T10:42:55.643Z,25.10
2018-04-15T10:45:24.075Z,25.30
2018-04-15T10:47:51.549Z,25.30
2018-04-15T10:50:19.063Z,26.00
2018-04-15T10:52:46.567Z,25.80
2018-04-15T10:55:14.815Z,25.50
2018-04-15T10:57:42.253Z,25.40
2018-04-15T11:00:09.738Z,25.50
2018-04-15T11:02:37.303Z,25.60
2018-04-15T11:05:04.771Z,26.10
2018-04-15T11:07:32.249Z,26.50
2018-04-15T11:10:00.468Z,25.50
2018-04-15T11:12:27.940Z,25.40
2018-04-15T11:14:56.170Z,25.30
2018-04-15T11:17:23.629Z,25.30
2018-04-15T11:19:51.093Z,25.00
2018-04-15T11:22:18.591Z,24.90
2018-04-15T11:24:49.991Z,25.00
2018-04-15T11:27:18.216Z,25.30
2018-04-15T11:29:45.672Z,25.20
2018-04-15T11:32:13.146Z,24.50
2018-04-15T11:34:40.615Z,24.30
2018-04-15T11:37:08.852Z,23.30
2018-04-15T11:39:36.305Z,23.30
2018-04-15T11:42:03.784Z,24.40
2018-04-15T11:44:31.315Z,24.70
2018-04-15T11:46:58.824Z,24.60
2018-04-15T11:49:27.068Z,24.70
2018-04-15T11:51:54.514Z,24.70
2018-04-15T11:54:22.010Z,24.60
2018-04-15T11:56:49.479Z,25.50
2018-04-15T11:59:16.971Z,25.70
2018-04-15T12:01:44.387Z,26.00
2018-04-15T12:04:11.896Z,25.50
2018-04-15T12:06:39.351Z,25.20
2018-04-15T12:09:06.839Z,25.80
2018-04-15T12:11:34.310Z,26.20
2018-04-15T12:14:01.787Z,24.70
2018-04-15T12:16:30.022Z,24.70
2018-04-15T12:18:57.516Z,24.60
2018-04-15T12:21:24.954Z,25.20
2018-04-15T12:23:52.423Z,25.70
2018-04-15T12:26:19.898Z,25.50
2018-04-15T12:28:47.426Z,25.40
2018-04-15T12:31:15.008Z,25.20
2018-04-15T12:33:43.252Z,25.20
2018-04-15T12:36:10.673Z,25.20
2018-04-15T12:38:38.112Z,25.30
2018-04-15T12:41:05.591Z,25.20
2018-04-15T12:43:33.467Z,25.50
2018-04-15T12:46:00.952Z,25.20
2018-04-15T12:48:28.399Z,24.80
2018-04-15T12:50:55.866Z,24.70
2018-04-15T12:53:23.362Z,25.10
2018-04-15T12:55:50.834Z,25.20
2018-04-15T12:58:18.276Z,25.00
2018-04-15T13:00:45.781Z,24.80
2018-04-15T13:03:13.235Z,24.50
2018-04-15T13:05:40.679Z,24.40
2018-04-15T13:08:08.178Z,24.20
2018-04-15T13:10:35.651Z,23.80
2018-04-15T13:13:03.134Z,23.20
2018-04-15T13:15:30.589Z,23.10
2018-04-15T13:17:58.082Z,23.40
2018-04-15T13:20:25.529Z,23.80
2018-04-15T13:22:53.039Z,24.30
2018-04-15T13:25:24.697Z,24.80
2018-04-15T13:27:52.135Z,24.40
2018-04-15T13:30:20.345Z,23.90
2018-04-15T13:32:47.828Z,23.90
2018-04-15T13:35:15.288Z,23.70
2018-04-15T13:37:43.525Z,23.20
2018-04-15T13:40:10.983Z,23.20
2018-04-15T13:42:38.460Z,23.50
2018-04-15T13:45:09.599Z,23.20
2018-04-15T13:47:37.123Z,23.30
2018-04-15T13:50:04.594Z,23.20
2018-04-15T13:52:32.058Z,23.00
2018-04-15T13:54:59.548Z,22.90
2018-04-15T13:57:27.069Z,22.70
2018-04-15T13:59:54.505Z,23.50
2018-04-15T14:02:23.745Z,24.30
2018-04-15T14:04:51.371Z,24.60
2018-04-15T14:07:18.832Z,25.40
2018-04-15T14:09:46.331Z,25.50
2018-04-15T14:12:13.796Z,25.70
2018-04-15T14:14:41.251Z,25.20
2018-04-15T14:17:08.713Z,25.50
2018-04-15T14:19:36.164Z,25.80
2018-04-15T14:22:03.638Z,26.30
2018-04-15T14:24:31.128Z,26.40
2018-04-15T14:26:58.598Z,26.20
2018-04-15T14:29:34.698Z,26.50
2018-04-15T14:32:09.233Z,26.50
2018-04-15T14:34:36.950Z,25.60
2018-04-15T14:37:05.761Z,24.90
2018-04-15T14:39:42.263Z,24.30
2018-04-15T14:45:55.715Z,24.00
2018-04-15T14:48:23.201Z,23.10
2018-04-15T14:50:50.790Z,22.80
2018-04-15T14:53:18.324Z,22.70
2018-04-15T14:55:46.028Z,22.40
2018-04-15T14:58:14.597Z,22.60
2018-04-15T15:00:42.098Z,22.60
2018-04-15T15:03:09.608Z,22.70
2018-04-15T15:05:41.236Z,22.60
2018-04-15T15:08:08.774Z,22.30
2018-04-15T15:10:36.235Z,22.40
2018-04-15T15:13:08.545Z,22.30
2018-04-15T15:15:40.159Z,22.60
2018-04-15T15:18:07.734Z,22.60
2018-04-15T15:20:35.367Z,22.70
2018-04-15T15:23:06.890Z,22.90
2018-04-15T15:25:34.949Z,23.00
2018-04-15T15:28:02.552Z,22.50
2018-04-15T15:30:30.876Z,22.60
2018-04-15T15:32:58.438Z,22.70
2018-04-15T15:35:25.986Z,22.70
2018-04-15T15:37:53.839Z,22.80
2018-04-15T15:40:21.564Z,22.90
2018-04-15T15:42:49.126Z,23.00
2018-04-15T15:45:16.664Z,22.80
2018-04-15T15:47:45.604Z,22.70
2018-04-15T15:50:13.209Z,22.50
2018-04-15T15:52:40.806Z,22.40
2018-04-15T15:55:08.361Z,22.30
2018-04-15T15:57:36.087Z,22.20
2018-04-15T16:00:03.840Z,22.20
2018-04-15T16:02:31.351Z,22.00
2018-04-15T16:04:58.935Z,22.20
2018-04-15T16:07:26.502Z,22.30
2018-04-15T16:09:54.513Z,22.30
2018-04-15T16:12:22.049Z,22.10
2018-04-15T16:14:49.636Z,21.70
2018-04-15T16:17:17.654Z,21.70
2018-04-15T16:19:45.204Z,21.80
2018-04-15T16:22:12.720Z,21.90
2018-04-15T16:24:40.777Z,21.90
2018-04-15T16:27:08.760Z,21.90
2018-04-15T16:29:36.488Z,21.80
2018-04-15T16:32:04.134Z,21.70
2018-04-15T16:34:31.666Z,21.70
2018-04-15T16:36:59.339Z,21.70
2018-04-15T16:39:27.134Z,21.50
2018-04-15T16:41:55.239Z,21.50
2018-04-15T16:44:22.745Z,21.50
2018-04-15T16:46:50.654Z,21.50
2018-04-15T16:49:18.194Z,21.40
2018-04-15T16:51:45.784Z,21.30
2018-04-15T16:54:13.287Z,21.20
2018-04-15T16:56:40.818Z,21.20
2018-04-15T16:59:09.328Z,21.20
2018-04-15T17:01:36.851Z,21.20
2018-04-15T17:04:05.113Z,21.10
2018-04-15T17:06:32.608Z,21.10
2018-04-15T17:09:00.113Z,20.90
2018-04-15T17:11:27.642Z,20.80
2018-04-15T17:13:55.165Z,20.70
2018-04-15T17:16:22.808Z,20.80
2018-04-15T17:18:50.374Z,20.70
2018-04-15T17:21:18.684Z,20.40
2018-04-15T17:23:46.316Z,20.30
2018-04-15T17:26:14.604Z,20.30
2018-04-15T17:28:42.141Z,20.30
2018-04-15T17:31:10.376Z,20.60
2018-04-15T17:33:38.739Z,20.60
2018-04-15T17:36:06.366Z,20.50
2018-04-15T17:38:33.929Z,20.50
2018-04-15T17:41:01.404Z,20.40
2018-04-15T17:43:29.063Z,20.40
2018-04-15T17:45:56.617Z,20.40
2018-04-15T17:48:24.181Z,20.40
2018-04-15T17:50:51.804Z,20.30
2018-04-15T17:53:19.417Z,20.30
2018-04-15T17:55:47.331Z,20.30
2018-04-15T17:58:14.868Z,20.20
2018-04-15T18:00:42.369Z,20.20
2018-04-15T18:03:10.253Z,20.10
2018-04-15T18:05:37.892Z,20.10
2018-04-15T18:08:05.477Z,20.00
2018-04-15T18:10:33.028Z,19.90
2018-04-15T18:13:00.518Z,19.90
2018-04-15T18:15:28.026Z,19.90
2018-04-15T18:17:56.252Z,19.80
2018-04-15T18:20:23.809Z,19.80
2018-04-15T18:22:51.739Z,19.70
2018-04-15T18:25:19.330Z,19.70
2018-04-15T18:27:46.797Z,19.70
2018-04-15T18:30:14.333Z,19.70
2018-04-15T18:32:42.071Z,19.70
2018-04-15T18:35:09.693Z,19.60
2018-04-15T18:37:37.195Z,19.50
2018-04-15T18:40:05.322Z,19.50
2018-04-15T18:42:32.813Z,19.40
2018-04-15T18:45:00.346Z,19.40
2018-04-15T18:47:27.838Z,19.50
2018-04-15T18:49:55.369Z,19.50
2018-04-15T18:52:23.024Z,19.70
2018-04-15T18:54:50.688Z,19.60
2018-04-15T18:57:18.350Z,19.50
2018-04-15T18:59:45.889Z,19.50
2018-04-15T19:02:13.483Z,19.50
2018-04-15T19:04:41.027Z,19.50
2018-04-15T19:07:08.577Z,19.50
2018-04-15T19:09:39.926Z,19.50
2018-04-15T19:12:07.484Z,19.60
2018-04-15T19:14:37.918Z,19.50
2018-04-15T19:17:05.494Z,19.50
2018-04-15T19:19:33.119Z,19.50
2018-04-15T19:22:00.611Z,19.50
2018-04-15T19:24:28.150Z,19.50
2018-04-15T19:26:55.694Z,19.50
2018-04-15T19:29:23.231Z,19.50
2018-04-15T19:31:50.731Z,19.50
2018-04-15T19:34:18.227Z,19.30
2018-04-15T19:36:46.692Z,19.10
2018-04-15T19:39:14.300Z,19.10
2018-04-15T19:41:41.796Z,19.10
2018-04-15T19:44:09.607Z,19.10
2018-04-15T19:46:37.210Z,19.20
2018-04-15T19:49:04.884Z,19.20
2018-04-15T19:51:33.014Z,19.30
2018-04-15T19:54:00.685Z,19.20
2018-04-15T19:56:28.282Z,19.10
2018-04-15T19:58:56.014Z,19.20
2018-04-15T20:01:23.740Z,19.10
2018-04-15T20:03:51.358Z,19.10
2018-04-15T20:06:19.605Z,19.20
2018-04-15T20:08:47.109Z,19.20
2018-04-15T20:11:14.607Z,19.20
2018-04-15T20:13:42.083Z,19.20
2018-04-15T20:16:10.371Z,19.10
2018-04-15T20:18:38.656Z,19.10
2018-04-15T20:21:07.026Z,19.00
2018-04-15T20:23:34.545Z,19.00
2018-04-15T20:26:02.040Z,18.90
2018-04-15T20:28:30.323Z,19.00
2018-04-15T20:30:58.889Z,19.00
2018-04-15T20:33:26.399Z,19.00
2018-04-15T20:35:53.864Z,18.90
2018-04-15T20:38:21.380Z,18.80
2018-04-15T20:40:48.837Z,18.80
2018-04-15T20:43:16.449Z,18.80
2018-04-15T20:45:43.933Z,18.80
2018-04-15T20:48:12.235Z,18.80
2018-04-15T20:50:39.720Z,18.80
2018-04-15T20:53:07.243Z,18.80
2018-04-15T20:55:34.697Z,18.70
2018-04-15T20:58:02.161Z,18.70
2018-04-15T21:00:29.672Z,18.70
2018-04-15T21:02:57.147Z,18.70
2018-04-15T21:05:25.453Z,18.60
2018-04-15T21:07:53.057Z,18.60
2018-04-15T21:10:21.445Z,18.40
2018-04-15T21:12:49.150Z,18.30
2018-04-15T21:15:16.862Z,18.20
2018-04-15T21:17:44.509Z,18.10
2018-04-15T21:20:12.074Z,17.90
2018-04-15T21:22:39.718Z,17.70
2018-04-15T21:25:07.448Z,17.60
2018-04-15T21:27:34.977Z,17.40
2018-04-15T21:30:02.502Z,17.10
2018-04-15T21:32:30.034Z,16.90
2018-04-15T21:34:57.682Z,16.70
2018-04-15T21:37:25.228Z,16.70
2018-04-15T21:39:53.479Z,16.70
2018-04-15T21:42:20.984Z,16.70
2018-04-15T21:44:48.531Z,16.60
2018-04-15T21:47:16.000Z,16.50
2018-04-15T21:49:43.475Z,16.50
2018-04-15T21:52:10.970Z,16.50
2018-04-15T21:54:38.455Z,16.10
2018-04-15T21:57:05.933Z,15.90
2018-04-15T21:59:33.408Z,16.00
2018-04-15T22:02:01.644Z,16.00
2018-04-15T22:04:29.132Z,16.20
2018-04-15T22:06:56.621Z,16.30
2018-04-15T22:09:24.080Z,16.30
2018-04-15T22:12:03.312Z,16.20
2018-04-15T22:14:30.797Z,16.10
2018-04-15T22:16:58.484Z,16.00
2018-04-15T22:19:25.977Z,15.80
2018-04-15T22:21:53.517Z,15.90
2018-04-15T22:24:21.021Z,15.90
2018-04-15T22:26:48.736Z,16.00
2018-04-15T22:29:16.290Z,16.10
2018-04-15T22:31:43.803Z,16.20
2018-04-15T22:34:11.270Z,16.20
2018-04-15T22:36:39.611Z,16.10
2018-04-15T22:39:07.054Z,16.10
2018-04-15T22:41:34.525Z,16.00
2018-04-15T22:44:01.989Z,15.90
2018-04-15T22:46:29.469Z,16.00
2018-04-15T22:48:57.718Z,16.10
2018-04-15T22:51:25.184Z,16.00
2018-04-15T22:53:53.694Z,16.00
2018-04-15T22:56:21.206Z,16.00
2018-04-15T22:58:48.678Z,16.00
2018-04-15T23:01:17.482Z,16.00
2018-04-15T23:03:45.715Z,16.00
2018-04-15T23:06:13.203Z,15.90
2018-04-15T23:08:40.670Z,15.90
2018-04-15T23:11:08.139Z,15.80
2018-04-15T23:13:35.630Z,15.90
2018-04-15T23:16:03.090Z,15.90
2018-04-15T23:18:31.305Z,15.70
2018-04-15T23:20:59.640Z,15.60
2018-04-15T23:23:27.113Z,15.60
2018-04-15T23:25:54.566Z,15.60
2018-04-15T23:28:22.100Z,15.60
2018-04-15T23:30:49.590Z,15.50
2018-04-15T23:33:17.039Z,15.50
2018-04-15T23:35:44.508Z,15.50
2018-04-15T23:38:11.969Z,15.40
2018-04-15T23:40:39.430Z,15.30
2018-04-15T23:43:07.677Z,15.10
2018-04-15T23:45:35.150Z,15.10
2018-04-15T23:48:02.600Z,15.30
2018-04-15T23:50:30.065Z,15.40
2018-04-15T23:52:57.526Z,15.40
2018-04-15T23:55:25.089Z,15.30
2018-04-15T23:57:52.523Z,15.20
